Crown Of Scandinavia — OXRA6 — position and weather

sailwx.info

Track history (hours):
 
Tides and Currents Weather Stations Pressure Air Temp Water Temp Dewpoint Dewpoint Depression Visibility Wind Speed Wind Dir Waves Ship Positions

Crown Of Scandinavia

Last reported at 2019-Sep-21 00:01 UTC. Time now 2019-Sep-21 00:28 UTC.
Position N 57°32' E 011°20'.

Length 171 m; draft 6.3 m.

Type: Ship. MMSI: 219592000.

Date/timePositionNaut miles runAvg speedWind from/ knotsBaromVisibWave heightAir tempDewpointWater temp
2019-Sep-21 00:01N 57°32' E 011°20'816.8
2019-Sep-20 23:31N 57°40' E 011°14'816.9
2019-Sep-20 23:00N 57°48' E 011°08'816.7
2019-Sep-20 22:31N 57°55' E 011°02'816.2
2019-Sep-20 22:00N 58°03' E 010°57'815.5
2019-Sep-20 21:30N 58°10' E 010°51'815.1
2019-Sep-20 21:01N 58°17' E 010°47'815.4
2019-Sep-20 20:31N 58°25' E 010°41'815.4
2019-Sep-20 20:00N 58°32' E 010°37'815.9
2019-Sep-20 19:31N 58°40' E 010°36'816.4
2019-Sep-20 19:01N 58°48' E 010°35'816.4
2019-Sep-20 18:30N 58°56' E 010°36'816.3
2019-Sep-20 18:01N 59°04' E 010°38'816.3
2019-Sep-20 17:31N 59°12' E 010°38'816.8
2019-Sep-20 17:01N 59°21' E 010°35'816.7
2019-Sep-20 16:31N 59°29' E 010°34'816.6
2019-Sep-20 16:01N 59°37' E 010°38'714.1
2019-Sep-20 15:29N 59°44' E 010°33'815.9
2019-Sep-20 15:00N 59°52' E 010°37'5 9.0
2019-Sep-20 14:28N 59°54' E 010°45'0 0.0
2019-Sep-20 13:58N 59°54' E 010°45'0 0.0
2019-Sep-20 13:28N 59°54' E 010°45'0 0.0
2019-Sep-20 12:58N 59°54' E 010°45'0 0.0
2019-Sep-20 12:28N 59°54' E 010°45'0 0.0
2019-Sep-20 11:58N 59°54' E 010°45'0 0.0
2019-Sep-20 11:28N 59°54' E 010°45'0 0.0
2019-Sep-20 10:58N 59°54' E 010°45'0 0.0
2019-Sep-20 10:28N 59°54' E 010°45'0 0.0
2019-Sep-20 09:58N 59°54' E 010°45'0 0.0
2019-Sep-20 09:28N 59°54' E 010°45'0 0.0
2019-Sep-20 08:58N 59°54' E 010°45'0 0.0
2019-Sep-20 08:28N 59°54' E 010°45'0 0.0
2019-Sep-20 07:58N 59°54' E 010°45'0 0.8
2019-Sep-20 07:30N 59°54' E 010°44'713.9
2019-Sep-20 07:00N 59°49' E 010°35'714.7
2019-Sep-20 06:30N 59°42' E 010°36'714.6
2019-Sep-20 06:01N 59°34' E 010°38'816.5
2019-Sep-20 05:31N 59°26' E 010°34'816.5
2019-Sep-20 05:00N 59°18' E 010°37'816.2
2019-Sep-20 04:30N 59°10' E 010°39'816.3
2019-Sep-20 04:00N 59°02' E 010°41'816.6
2019-Sep-20 03:30N 58°54' E 010°42'816.3
2019-Sep-20 03:00N 58°46' E 010°44'816.4
2019-Sep-20 02:30N 58°38' E 010°46'815.2
2019-Sep-20 02:00N 58°30' E 010°48'815.3
2019-Sep-20 01:30N 58°23' E 010°51'816.1
2019-Sep-20 01:00N 58°15' E 010°55'816.1
2019-Sep-20 00:30N 58°07' E 010°59'816.2
2019-Sep-20 00:00N 57°60' E 011°04'816.4
2019-Sep-19 23:30N 57°52' E 011°10'816.4
2019-Sep-19 23:00N 57°44' E 011°16'816.4
2019-Sep-19 22:30N 57°37' E 011°22'816.2
2019-Sep-19 22:00N 57°29' E 011°28'816.1
2019-Sep-19 21:30N 57°22' E 011°32'816.1
2019-Sep-19 21:00N 57°14' E 011°37'816.1
2019-Sep-19 20:30N 57°06' E 011°41'6015.8
2019-Sep-19 16:43N 56°12' E 012°28'315.9
2019-Sep-19 16:30N 56°09' E 012°31'816.8
2019-Sep-19 16:00N 56°03' E 012°40'816.2
2019-Sep-19 15:30N 55°55' E 012°44'815.9
2019-Sep-19 15:01N 55°47' E 012°42'611.5
2019-Sep-19 14:30N 55°42' E 012°36'0 0.5
2019-Sep-19 14:00N 55°42' E 012°36'0 0.0
2019-Sep-19 13:30N 55°42' E 012°36'0 0.0
2019-Sep-19 13:00N 55°42' E 012°36'0 0.0
2019-Sep-19 12:30N 55°42' E 012°36'0 0.1
2019-Sep-19 12:00N 55°42' E 012°36'0 0.0
2019-Sep-19 11:30N 55°42' E 012°36'0 0.0
2019-Sep-19 11:00N 55°42' E 012°36'0 0.0
2019-Sep-19 10:30N 55°42' E 012°36'0 0.0
2019-Sep-19 10:00N 55°42' E 012°36'0 0.0
2019-Sep-19 09:30N 55°42' E 012°36'0 0.0
2019-Sep-19 09:00N 55°42' E 012°36'0 0.0
2019-Sep-19 08:30N 55°42' E 012°36'0 0.0
2019-Sep-19 08:00N 55°42' E 012°36'0 0.6
2019-Sep-19 07:30N 55°42' E 012°36'612.7
2019-Sep-19 07:01N 55°48' E 012°42'815.9
2019-Sep-19 06:31N 55°56' E 012°39'815.9
2019-Sep-19 06:01N 56°03' E 012°38'816.6
2019-Sep-19 05:31N 56°09' E 012°27'6516.6
2019-Sep-19 01:35N 57°11' E 011°53'217.2
2019-Sep-19 01:30N 57°13' E 011°52'816.6
2019-Sep-19 01:00N 57°20' E 011°44'917.0
2019-Sep-19 00:31N 57°27' E 011°36'816.7
2019-Sep-19 00:01N 57°34' E 011°26'816.7
2019-Sep-18 23:31N 57°41' E 011°17'816.8
2019-Sep-18 23:01N 57°47' E 011°08'816.6
2019-Sep-18 22:30N 57°55' E 011°03'816.8
2019-Sep-18 22:01N 58°03' E 010°58'816.2
2019-Sep-18 21:31N 58°11' E 010°52'816.0
2019-Sep-18 21:00N 58°18' E 010°46'815.5
2019-Sep-18 20:30N 58°25' E 010°40'815.2
2019-Sep-18 20:00N 58°33' E 010°37'815.6
2019-Sep-18 19:30N 58°41' E 010°36'816.3
2019-Sep-18 19:01N 58°48' E 010°35'816.6
2019-Sep-18 18:30N 58°57' E 010°36'816.7
2019-Sep-18 18:00N 59°05' E 010°38'816.9
2019-Sep-18 17:31N 59°13' E 010°38'917.3
2019-Sep-18 17:01N 59°22' E 010°35'816.9
2019-Sep-18 16:31N 59°30' E 010°35'816.3
2019-Sep-18 16:01N 59°38' E 010°37'713.3
2019-Sep-18 15:30N 59°45' E 010°33'815.4
2019-Sep-18 15:00N 59°52' E 010°38'4 7.8
2019-Sep-18 14:30N 59°54' E 010°45'0 0.0
2019-Sep-18 14:00N 59°54' E 010°45'0 0.0
2019-Sep-18 13:30N 59°54' E 010°45'0 0.0
2019-Sep-18 13:00N 59°54' E 010°45'0 0.0
2019-Sep-18 12:30N 59°54' E 010°45'0 0.0
2019-Sep-18 12:00N 59°54' E 010°45'0 0.0
2019-Sep-18 11:30N 59°54' E 010°45'0 0.0
2019-Sep-18 11:00N 59°54' E 010°45'0 0.0
2019-Sep-18 10:30N 59°54' E 010°45'0 0.0
2019-Sep-18 10:00N 59°54' E 010°45'0 0.0
2019-Sep-18 09:30N 59°54' E 010°45'0 0.0
2019-Sep-18 09:00N 59°54' E 010°45'0 0.0
2019-Sep-18 08:30N 59°54' E 010°45'0 0.0
2019-Sep-18 08:00N 59°54' E 010°45'2 4.0
2019-Sep-18 07:30N 59°53' E 010°41'816.2
2019-Sep-18 07:00N 59°46' E 010°35'713.6
2019-Sep-18 06:30N 59°39' E 010°37'816.1
2019-Sep-18 06:00N 59°31' E 010°36'816.8
2019-Sep-18 05:30N 59°23' E 010°35'816.5
2019-Sep-18 05:00N 59°15' E 010°37'816.1
2019-Sep-18 04:30N 59°07' E 010°39'816.3
2019-Sep-18 04:00N 58°59' E 010°39'816.8
2019-Sep-18 03:30N 58°50' E 010°39'816.8
2019-Sep-18 03:00N 58°42' E 010°38'917.5
2019-Sep-18 02:30N 58°33' E 010°39'918.0
2019-Sep-18 02:00N 58°25' E 010°42'918.5
2019-Sep-18 01:30N 58°16' E 010°48'918.2
2019-Sep-18 01:00N 58°07' E 010°54'917.6
2019-Sep-18 00:30N 57°59' E 010°60'816.3
2019-Sep-18 00:00N 57°51' E 011°06'816.6
2019-Sep-17 23:30N 57°44' E 011°12'816.7
2019-Sep-17 23:00N 57°36' E 011°18'816.3
2019-Sep-17 22:30N 57°29' E 011°25'816.0
2019-Sep-17 22:00N 57°22' E 011°32'816.1
2019-Sep-17 21:30N 57°14' E 011°36'815.6
2019-Sep-17 21:00N 57°07' E 011°40'815.6
2019-Sep-17 20:30N 56°60' E 011°46'5414.9
2019-Sep-17 16:54N 56°11' E 012°28'513.4
2019-Sep-17 16:30N 56°07' E 012°33'612.9
2019-Sep-17 16:00N 56°02' E 012°40'713.1
2019-Sep-17 15:30N 55°55' E 012°44'713.6
2019-Sep-17 15:00N 55°49' E 012°43'713.5
2019-Sep-17 14:30N 55°43' E 012°38'1 2.2
2019-Sep-17 13:59N 55°42' E 012°36'0 0.0
2019-Sep-17 13:29N 55°42' E 012°36'0 0.0
2019-Sep-17 12:59N 55°42' E 012°36'0 0.0
2019-Sep-17 12:29N 55°42' E 012°36'0 0.0
2019-Sep-17 11:53N 55°42' E 012°36'0 0.0
2019-Sep-17 11:29N 55°42' E 012°36'0 0.0
2019-Sep-17 10:59N 55°42' E 012°36'0 0.0
2019-Sep-17 10:29N 55°42' E 012°36'0 0.0
2019-Sep-17 09:59N 55°42' E 012°36'0 0.0
2019-Sep-17 09:29N 55°42' E 012°36'0 0.0
2019-Sep-17 08:59N 55°42' E 012°36'0 0.0
2019-Sep-17 08:29N 55°42' E 012°36'0 0.0
2019-Sep-17 08:00N 55°42' E 012°36'2 3.1
2019-Sep-17 07:30N 55°43' E 012°38'815.4
2019-Sep-17 07:00N 55°51' E 012°41'816.2
2019-Sep-17 06:30N 55°59' E 012°40'917.5
2019-Sep-17 06:00N 56°06' E 012°33'917.0
2019-Sep-17 05:28N 56°14' E 012°25'6316.8
2019-Sep-17 01:42N 57°15' E 011°52'316.9
2019-Sep-17 01:30N 57°18' E 011°49'816.7
2019-Sep-17 01:00N 57°25' E 011°41'816.2
2019-Sep-17 00:30N 57°32' E 011°33'815.9
2019-Sep-17 00:00N 57°39' E 011°28'815.8
2019-Sep-16 23:30N 57°47' E 011°22'816.4
2019-Sep-16 23:00N 57°54' E 011°16'816.6
2019-Sep-16 22:31N 58°02' E 011°10'816.4
2019-Sep-16 22:01N 58°09' E 011°03'816.3
2019-Sep-16 21:31N 58°17' E 010°57'815.5
2019-Sep-16 21:00N 58°24' E 010°51'815.1
2019-Sep-16 20:30N 58°31' E 010°45'714.9
2019-Sep-16 20:00N 58°38' E 010°40'715.2
2019-Sep-16 19:30N 58°44' E 010°34'714.2
2019-Sep-16 19:00N 58°52' E 010°37'714.8
2019-Sep-16 18:31N 58°59' E 010°39'815.3
2019-Sep-16 18:00N 59°06' E 010°39'816.4
2019-Sep-16 17:31N 59°15' E 010°37'816.1
2019-Sep-16 17:01N 59°22' E 010°34'815.7
2019-Sep-16 16:31N 59°30' E 010°35'714.8
2019-Sep-16 16:01N 59°38' E 010°38'713.5
2019-Sep-16 15:30N 59°44' E 010°33'815.9
2019-Sep-16 14:58N 59°52' E 010°38'4 8.4
2019-Sep-16 14:30N 59°54' E 010°45'0 0.0
2019-Sep-16 14:00N 59°54' E 010°45'0 0.0
2019-Sep-16 13:30N 59°54' E 010°45'0 0.0
2019-Sep-16 13:00N 59°54' E 010°45'0 0.0
2019-Sep-16 12:30N 59°54' E 010°45'0 0.0
2019-Sep-16 12:00N 59°54' E 010°45'0 0.0
2019-Sep-16 11:30N 59°54' E 010°45'0 0.0
2019-Sep-16 11:00N 59°54' E 010°45'0 0.0
2019-Sep-16 10:30N 59°54' E 010°45'0 0.0
2019-Sep-16 10:00N 59°54' E 010°45'0 0.0
2019-Sep-16 09:30N 59°54' E 010°45'0 0.0
2019-Sep-16 09:00N 59°54' E 010°45'4 7.6
2019-Sep-16 08:30N 59°52' E 010°38'713.6
2019-Sep-16 08:00N 59°46' E 010°34'713.3
2019-Sep-16 07:30N 59°39' E 010°37'815.4
2019-Sep-16 07:00N 59°31' E 010°36'816.1
2019-Sep-16 06:30N 59°23' E 010°35'816.8
2019-Sep-16 06:00N 59°15' E 010°37'918.2
2019-Sep-16 05:30N 59°06' E 010°40'918.2
2019-Sep-16 05:00N 58°57' E 010°42'918.0
2019-Sep-16 04:30N 58°48' E 010°43'918.0
2019-Sep-16 04:00N 58°39' E 010°45'918.3
2019-Sep-16 03:30N 58°30' E 010°44'918.3
2019-Sep-16 03:00N 58°21' E 010°44'918.4
2019-Sep-16 02:31N 58°12' E 010°44'918.0
2019-Sep-16 02:00N 58°03' E 010°44'917.9
2019-Sep-16 01:30N 57°54' E 010°44'713.7
2019-Sep-16 01:00N 57°47' E 010°47'714.4
2019-Sep-16 00:31N 57°43' E 010°57'815.4
2019-Sep-16 00:01N 57°37' E 011°08'816.2
2019-Sep-15 23:30N 57°32' E 011°19'816.0
2019-Sep-15 23:01N 57°26' E 011°28'816.3
2019-Sep-15 22:31N 57°18' E 011°34'815.8
2019-Sep-15 22:01N 57°11' E 011°39'715.0
2019-Sep-15 21:31N 57°04' E 011°43'5214.0
2019-Sep-15 17:45N 56°14' E 012°16'713.9
2019-Sep-15 17:14N 56°10' E 012°26'313.7
2019-Sep-15 17:00N 56°08' E 012°31'612.9
2019-Sep-15 16:30N 56°03' E 012°39'611.6
2019-Sep-15 16:00N 55°58' E 012°42'713.8
2019-Sep-15 15:31N 55°51' E 012°45'714.1
2019-Sep-15 15:01N 55°44' E 012°41'4 7.2
2019-Sep-15 14:31N 55°42' E 012°36'0 0.0
2019-Sep-15 13:58N 55°42' E 012°36'0 0.0
2019-Sep-15 13:25N 55°42' E 012°36'0 0.0
2019-Sep-15 12:58N 55°42' E 012°36'0 0.0
2019-Sep-15 12:28N 55°42' E 012°36'0 0.0
2019-Sep-15 11:58N 55°42' E 012°36'0 0.0
2019-Sep-15 11:25N 55°42' E 012°36'0 0.0
2019-Sep-15 10:55N 55°42' E 012°36'0 0.0
2019-Sep-15 10:28N 55°42' E 012°36'0 0.0
2019-Sep-15 09:58N 55°42' E 012°36'0 0.0
2019-Sep-15 09:28N 55°42' E 012°36'0 0.0
2019-Sep-15 08:58N 55°42' E 012°36'0 0.0
2019-Sep-15 08:28N 55°42' E 012°36'0 0.0
2019-Sep-15 07:55N 55°42' E 012°36'1 1.4
2019-Sep-15 07:30N 55°42' E 012°37'713.7
2019-Sep-15 07:01N 55°49' E 012°42'816.2
2019-Sep-15 06:31N 55°57' E 012°40'816.5
2019-Sep-15 06:01N 56°05' E 012°36'917.5
2019-Sep-15 05:30N 56°11' E 012°25'817.0
2019-Sep-15 05:00N 56°18' E 012°16'5415.2
2019-Sep-15 01:25N 57°08' E 011°38'614.8
2019-Sep-15 01:01N 57°14' E 011°34'815.3
2019-Sep-15 00:31N 57°21' E 011°29'815.3
2019-Sep-15 00:01N 57°28' E 011°24'816.3
2019-Sep-14 23:31N 57°36' E 011°21'917.7
2019-Sep-14 23:01N 57°45' E 011°17'917.4
2019-Sep-14 22:30N 57°53' E 011°13'816.3
2019-Sep-14 22:01N 58°01' E 011°08'815.6
2019-Sep-14 21:30N 58°08' E 011°02'815.6
2019-Sep-14 21:00N 58°16' E 010°58'815.9
2019-Sep-14 20:31N 58°23' E 010°52'815.4
2019-Sep-14 20:00N 58°30' E 010°47'714.9
2019-Sep-14 19:30N 58°37' E 010°42'815.6
2019-Sep-14 19:00N 58°44' E 010°35'815.8
2019-Sep-14 18:31N 58°52' E 010°31'815.4
2019-Sep-14 18:01N 58°59' E 010°35'815.8
2019-Sep-14 17:31N 59°07' E 010°38'917.6
2019-Sep-14 17:01N 59°16' E 010°37'918.2
2019-Sep-14 16:31N 59°25' E 010°34'917.7
2019-Sep-14 16:01N 59°33' E 010°37'714.8
2019-Sep-14 15:31N 59°41' E 010°37'814.7
2019-Sep-14 15:00N 59°48' E 010°34'714.6
2019-Sep-14 14:30N 59°54' E 010°43'1 1.6
2019-Sep-14 13:58N 59°54' E 010°45'0 0.0
2019-Sep-14 13:28N 59°54' E 010°45'0 0.0
2019-Sep-14 12:58N 59°54' E 010°45'0 0.0
2019-Sep-14 12:28N 59°54' E 010°45'0 0.0
2019-Sep-14 11:58N 59°54' E 010°45'0 0.0
2019-Sep-14 11:28N 59°54' E 010°45'0 0.0
2019-Sep-14 10:58N 59°54' E 010°45'0 0.0
2019-Sep-14 10:28N 59°54' E 010°45'0 0.0
2019-Sep-14 09:58N 59°54' E 010°45'0 0.0
2019-Sep-14 09:28N 59°54' E 010°45'0 0.0
2019-Sep-14 08:58N 59°54' E 010°45'0 0.0
2019-Sep-14 08:28N 59°54' E 010°45'0 0.0
2019-Sep-14 08:00N 59°54' E 010°45'5 9.3
2019-Sep-14 07:31N 59°51' E 010°37'815.9
2019-Sep-14 07:00N 59°43' E 010°35'714.3
2019-Sep-14 06:30N 59°36' E 010°38'917.7
2019-Sep-14 06:00N 59°28' E 010°34'917.7
2019-Sep-14 05:30N 59°19' E 010°36'917.9
2019-Sep-14 05:00N 59°10' E 010°39'917.9
2019-Sep-14 04:30N 59°01' E 010°41'917.8
2019-Sep-14 04:00N 58°52' E 010°43'917.7
2019-Sep-14 03:30N 58°44' E 010°46'917.9
2019-Sep-14 03:00N 58°35' E 010°48'918.4
2019-Sep-14 02:30N 58°26' E 010°51'918.3
2019-Sep-14 02:00N 58°17' E 010°53'917.6
2019-Sep-14 01:30N 58°08' E 010°53'816.2
2019-Sep-14 01:00N 57°60' E 010°53'816.6
2019-Sep-14 00:30N 57°52' E 010°53'815.4
2019-Sep-14 00:00N 57°44' E 010°57'815.4
2019-Sep-13 23:30N 57°39' E 011°07'815.3
2019-Sep-13 23:00N 57°33' E 011°17'815.4
2019-Sep-13 22:30N 57°28' E 011°27'815.6
2019-Sep-13 22:00N 57°20' E 011°32'815.5
2019-Sep-13 21:30N 57°13' E 011°37'815.7
2019-Sep-13 21:00N 57°05' E 011°42'1015.5
2019-Sep-13 20:23N 56°56' E 011°48'5114.2
2019-Sep-13 16:47N 56°10' E 012°27'414.5
2019-Sep-13 16:30N 56°07' E 012°32'713.6
2019-Sep-13 16:00N 56°02' E 012°40'713.7
2019-Sep-13 15:31N 55°55' E 012°39'714.9
2019-Sep-13 15:01N 55°48' E 012°43'713.3
2019-Sep-13 14:30N 55°43' E 012°37'1 1.7
2019-Sep-13 14:00N 55°42' E 012°36'0 0.0
2019-Sep-13 13:27N 55°42' E 012°36'0 0.0
2019-Sep-13 12:54N 55°42' E 012°36'0 0.0
2019-Sep-13 12:30N 55°42' E 012°36'0 0.0
2019-Sep-13 12:00N 55°42' E 012°36'0 0.0
2019-Sep-13 11:30N 55°42' E 012°36'0 0.0
2019-Sep-13 10:54N 55°42' E 012°36'0 0.0
2019-Sep-13 10:27N 55°42' E 012°36'0 0.0
2019-Sep-13 10:00N 55°42' E 012°36'0 0.0
2019-Sep-13 09:27N 55°42' E 012°36'0 0.0
2019-Sep-13 09:00N 55°42' E 012°36'0 0.0
2019-Sep-13 08:30N 55°42' E 012°36'0 0.0
2019-Sep-13 08:00N 55°42' E 012°36'4 7.4
2019-Sep-13 07:30N 55°45' E 012°40'816.2
2019-Sep-13 07:00N 55°53' E 012°40'918.3
2019-Sep-13 06:30N 56°02' E 012°39'918.7
2019-Sep-13 06:00N 56°10' E 012°29'7518.7
2019-Sep-13 02:00N 57°21' E 011°44'919.0
2019-Sep-13 01:30N 57°28' E 011°34'918.9
2019-Sep-13 01:00N 57°36' E 011°25'918.4
2019-Sep-13 00:30N 57°44' E 011°16'917.2
2019-Sep-13 00:00N 57°53' E 011°11'917.5
2019-Sep-12 23:30N 58°01' E 011°06'816.9
2019-Sep-12 23:00N 58°09' E 011°00'917.0
2019-Sep-12 22:30N 58°17' E 010°54'917.0
2019-Sep-12 22:00N 58°25' E 010°49'816.7
2019-Sep-12 21:30N 58°33' E 010°43'816.9
2019-Sep-12 21:00N 58°40' E 010°35'816.5
2019-Sep-12 20:30N 58°48' E 010°32'816.3
2019-Sep-12 20:00N 58°56' E 010°30'612.1
2019-Sep-12 19:31N 59°02' E 010°34'4 8.9
2019-Sep-12 19:01N 59°06' E 010°37'5 9.1
2019-Sep-12 18:30N 59°10' E 010°38'5 9.8
2019-Sep-12 18:01N 59°15' E 010°36'5 9.5
2019-Sep-12 17:30N 59°20' E 010°35'510.0
2019-Sep-12 17:00N 59°25' E 010°34'611.4
2019-Sep-12 16:30N 59°31' E 010°34'611.7
2019-Sep-12 16:00N 59°36' E 010°38'611.6
2019-Sep-12 15:30N 59°42' E 010°35'714.7
2019-Sep-12 15:00N 59°49' E 010°34'713.3
2019-Sep-12 14:30N 59°54' E 010°43'1 1.3
2019-Sep-12 14:00N 59°54' E 010°45'0 0.0
2019-Sep-12 13:30N 59°54' E 010°45'0 0.0
2019-Sep-12 13:00N 59°54' E 010°45'0 0.0
2019-Sep-12 12:30N 59°54' E 010°45'0 0.0
2019-Sep-12 12:00N 59°54' E 010°45'0 0.0
2019-Sep-12 11:30N 59°54' E 010°45'0 0.0
2019-Sep-12 11:00N 59°54' E 010°45'0 0.0
2019-Sep-12 10:30N 59°54' E 010°45'0 0.0
2019-Sep-12 10:00N 59°54' E 010°45'0 0.0
2019-Sep-12 09:30N 59°54' E 010°45'0 0.0
2019-Sep-12 09:00N 59°54' E 010°45'0 0.0
2019-Sep-12 08:30N 59°54' E 010°45'0 0.0
2019-Sep-12 08:00N 59°54' E 010°45'0 0.6
2019-Sep-12 07:30N 59°54' E 010°44'713.7
2019-Sep-12 07:00N 59°49' E 010°35'814.8
2019-Sep-12 06:30N 59°42' E 010°36'713.6
2019-Sep-12 06:00N 59°35' E 010°38'815.4
2019-Sep-12 05:30N 59°27' E 010°34'816.1
2019-Sep-12 05:00N 59°20' E 010°36'917.3
2019-Sep-12 04:30N 59°11' E 010°39'816.6
2019-Sep-12 04:00N 59°03' E 010°41'816.1
2019-Sep-12 03:30N 58°55' E 010°43'816.4
2019-Sep-12 03:00N 58°47' E 010°45'816.6
2019-Sep-12 02:30N 58°39' E 010°48'816.5
2019-Sep-12 02:00N 58°30' E 010°52'816.5
2019-Sep-12 01:30N 58°22' E 010°54'816.3
2019-Sep-12 01:00N 58°14' E 010°55'816.8
2019-Sep-12 00:30N 58°06' E 010°57'816.7
2019-Sep-12 00:00N 57°57' E 010°58'816.3
2019-Sep-11 23:30N 57°49' E 010°60'815.9
2019-Sep-11 23:00N 57°42' E 011°04'815.8
2019-Sep-11 22:30N 57°36' E 011°14'816.4
2019-Sep-11 22:00N 57°30' E 011°24'815.9
2019-Sep-11 21:30N 57°23' E 011°31'816.5
2019-Sep-11 21:00N 57°15' E 011°36'816.2
2019-Sep-11 20:30N 57°07' E 011°41'816.2
2019-Sep-11 20:00N 56°60' E 011°47'5215.7
2019-Sep-11 16:41N 56°12' E 012°25'316.4
2019-Sep-11 16:30N 56°10' E 012°28'816.5
2019-Sep-11 16:00N 56°04' E 012°38'816.2
2019-Sep-11 15:30N 55°56' E 012°43'816.0
2019-Sep-11 15:00N 55°48' E 012°43'713.7
2019-Sep-11 14:30N 55°42' E 012°36'0 0.8
2019-Sep-11 13:59N 55°42' E 012°36'0 0.0
2019-Sep-11 13:23N 55°42' E 012°36'0 0.0
2019-Sep-11 12:59N 55°42' E 012°36'0 0.0
2019-Sep-11 12:29N 55°42' E 012°36'0 0.0
2019-Sep-11 11:59N 55°42' E 012°36'0 0.0
2019-Sep-11 11:29N 55°42' E 012°36'0 0.0
2019-Sep-11 10:50N 55°42' E 012°36'0 0.0
2019-Sep-11 10:26N 55°42' E 012°36'0 0.0
2019-Sep-11 09:59N 55°42' E 012°36'0 0.0
2019-Sep-11 09:23N 55°42' E 012°36'0 0.0
2019-Sep-11 08:59N 55°42' E 012°36'0 0.0
2019-Sep-11 08:23N 55°42' E 012°36'0 0.0
2019-Sep-11 07:59N 55°42' E 012°36'0 1.0
2019-Sep-11 07:31N 55°42' E 012°36'713.6
2019-Sep-11 07:00N 55°48' E 012°42'815.9
2019-Sep-11 06:30N 55°56' E 012°40'816.0
2019-Sep-11 06:00N 56°04' E 012°37'816.9
2019-Sep-11 05:30N 56°11' E 012°28'3616.0
2019-Sep-11 03:17N 56°45' E 012°09'2016.7
2019-Sep-11 02:04N 57°04' E 011°57'316.5
2019-Sep-11 01:54N 57°07' E 011°56'716.4
2019-Sep-11 01:28N 57°14' E 011°52'816.7
2019-Sep-11 01:00N 57°20' E 011°44'816.7
2019-Sep-11 00:30N 57°27' E 011°37'  
Track history (hours):
 
Tides and Currents Weather Stations Pressure Air Temp Water Temp Dewpoint Dewpoint Depression Visibility Wind Speed Wind Dir Waves Ship Positions

Crown Of Scandinavia

Last reported at 2019-Sep-21 00:01 UTC. Time now 2019-Sep-21 00:28 UTC.
Position N 57°32' E 011°20'.

Length 171 m; draft 6.3 m.

Type: Ship. MMSI: 219592000.

Date/timePositionNaut miles runAvg speedWind from/ knotsBaromVisibWave heightAir tempDewpointWater temp
2019-Sep-21 00:01N 57°32' E 011°20'816.8
2019-Sep-20 23:31N 57°40' E 011°14'816.9
2019-Sep-20 23:00N 57°48' E 011°08'816.7
2019-Sep-20 22:31N 57°55' E 011°02'816.2
2019-Sep-20 22:00N 58°03' E 010°57'815.5
2019-Sep-20 21:30N 58°10' E 010°51'815.1
2019-Sep-20 21:01N 58°17' E 010°47'815.4
2019-Sep-20 20:31N 58°25' E 010°41'815.4
2019-Sep-20 20:00N 58°32' E 010°37'815.9
2019-Sep-20 19:31N 58°40' E 010°36'816.4
2019-Sep-20 19:01N 58°48' E 010°35'816.4
2019-Sep-20 18:30N 58°56' E 010°36'816.3
2019-Sep-20 18:01N 59°04' E 010°38'816.3
2019-Sep-20 17:31N 59°12' E 010°38'816.8
2019-Sep-20 17:01N 59°21' E 010°35'816.7
2019-Sep-20 16:31N 59°29' E 010°34'816.6
2019-Sep-20 16:01N 59°37' E 010°38'714.1
2019-Sep-20 15:29N 59°44' E 010°33'815.9
2019-Sep-20 15:00N 59°52' E 010°37'5 9.0
2019-Sep-20 14:28N 59°54' E 010°45'0 0.0
2019-Sep-20 13:58N 59°54' E 010°45'0 0.0
2019-Sep-20 13:28N 59°54' E 010°45'0 0.0
2019-Sep-20 12:58N 59°54' E 010°45'0 0.0
2019-Sep-20 12:28N 59°54' E 010°45'0 0.0
2019-Sep-20 11:58N 59°54' E 010°45'0 0.0
2019-Sep-20 11:28N 59°54' E 010°45'0 0.0
2019-Sep-20 10:58N 59°54' E 010°45'0 0.0
2019-Sep-20 10:28N 59°54' E 010°45'0 0.0
2019-Sep-20 09:58N 59°54' E 010°45'0 0.0
2019-Sep-20 09:28N 59°54' E 010°45'0 0.0
2019-Sep-20 08:58N 59°54' E 010°45'0 0.0
2019-Sep-20 08:28N 59°54' E 010°45'0 0.0
2019-Sep-20 07:58N 59°54' E 010°45'0 0.8
2019-Sep-20 07:30N 59°54' E 010°44'713.9
2019-Sep-20 07:00N 59°49' E 010°35'714.7
2019-Sep-20 06:30N 59°42' E 010°36'714.6
2019-Sep-20 06:01N 59°34' E 010°38'816.5
2019-Sep-20 05:31N 59°26' E 010°34'816.5
2019-Sep-20 05:00N 59°18' E 010°37'816.2
2019-Sep-20 04:30N 59°10' E 010°39'816.3
2019-Sep-20 04:00N 59°02' E 010°41'816.6
2019-Sep-20 03:30N 58°54' E 010°42'816.3
2019-Sep-20 03:00N 58°46' E 010°44'816.4
2019-Sep-20 02:30N 58°38' E 010°46'815.2
2019-Sep-20 02:00N 58°30' E 010°48'815.3
2019-Sep-20 01:30N 58°23' E 010°51'816.1
2019-Sep-20 01:00N 58°15' E 010°55'816.1
2019-Sep-20 00:30N 58°07' E 010°59'816.2
2019-Sep-20 00:00N 57°60' E 011°04'816.4
2019-Sep-19 23:30N 57°52' E 011°10'816.4
2019-Sep-19 23:00N 57°44' E 011°16'816.4
2019-Sep-19 22:30N 57°37' E 011°22'816.2
2019-Sep-19 22:00N 57°29' E 011°28'816.1
2019-Sep-19 21:30N 57°22' E 011°32'816.1
2019-Sep-19 21:00N 57°14' E 011°37'816.1
2019-Sep-19 20:30N 57°06' E 011°41'6015.8
2019-Sep-19 16:43N 56°12' E 012°28'315.9
2019-Sep-19 16:30N 56°09' E 012°31'816.8
2019-Sep-19 16:00N 56°03' E 012°40'816.2
2019-Sep-19 15:30N 55°55' E 012°44'815.9
2019-Sep-19 15:01N 55°47' E 012°42'611.5
2019-Sep-19 14:30N 55°42' E 012°36'0 0.5
2019-Sep-19 14:00N 55°42' E 012°36'0 0.0
2019-Sep-19 13:30N 55°42' E 012°36'0 0.0
2019-Sep-19 13:00N 55°42' E 012°36'0 0.0
2019-Sep-19 12:30N 55°42' E 012°36'0 0.1
2019-Sep-19 12:00N 55°42' E 012°36'0 0.0
2019-Sep-19 11:30N 55°42' E 012°36'0 0.0
2019-Sep-19 11:00N 55°42' E 012°36'0 0.0
2019-Sep-19 10:30N 55°42' E 012°36'0 0.0
2019-Sep-19 10:00N 55°42' E 012°36'0 0.0
2019-Sep-19 09:30N 55°42' E 012°36'0 0.0
2019-Sep-19 09:00N 55°42' E 012°36'0 0.0
2019-Sep-19 08:30N 55°42' E 012°36'0 0.0
2019-Sep-19 08:00N 55°42' E 012°36'0 0.6
2019-Sep-19 07:30N 55°42' E 012°36'612.7
2019-Sep-19 07:01N 55°48' E 012°42'815.9
2019-Sep-19 06:31N 55°56' E 012°39'815.9
2019-Sep-19 06:01N 56°03' E 012°38'816.6
2019-Sep-19 05:31N 56°09' E 012°27'6516.6
2019-Sep-19 01:35N 57°11' E 011°53'217.2
2019-Sep-19 01:30N 57°13' E 011°52'816.6
2019-Sep-19 01:00N 57°20' E 011°44'917.0
2019-Sep-19 00:31N 57°27' E 011°36'816.7
2019-Sep-19 00:01N 57°34' E 011°26'816.7
2019-Sep-18 23:31N 57°41' E 011°17'816.8
2019-Sep-18 23:01N 57°47' E 011°08'816.6
2019-Sep-18 22:30N 57°55' E 011°03'816.8
2019-Sep-18 22:01N 58°03' E 010°58'816.2
2019-Sep-18 21:31N 58°11' E 010°52'816.0
2019-Sep-18 21:00N 58°18' E 010°46'815.5
2019-Sep-18 20:30N 58°25' E 010°40'815.2
2019-Sep-18 20:00N 58°33' E 010°37'815.6
2019-Sep-18 19:30N 58°41' E 010°36'816.3
2019-Sep-18 19:01N 58°48' E 010°35'816.6
2019-Sep-18 18:30N 58°57' E 010°36'816.7
2019-Sep-18 18:00N 59°05' E 010°38'816.9
2019-Sep-18 17:31N 59°13' E 010°38'917.3
2019-Sep-18 17:01N 59°22' E 010°35'816.9
2019-Sep-18 16:31N 59°30' E 010°35'816.3
2019-Sep-18 16:01N 59°38' E 010°37'713.3
2019-Sep-18 15:30N 59°45' E 010°33'815.4
2019-Sep-18 15:00N 59°52' E 010°38'4 7.8
2019-Sep-18 14:30N 59°54' E 010°45'0 0.0
2019-Sep-18 14:00N 59°54' E 010°45'0 0.0
2019-Sep-18 13:30N 59°54' E 010°45'0 0.0
2019-Sep-18 13:00N 59°54' E 010°45'0 0.0
2019-Sep-18 12:30N 59°54' E 010°45'0 0.0
2019-Sep-18 12:00N 59°54' E 010°45'0 0.0
2019-Sep-18 11:30N 59°54' E 010°45'0 0.0
2019-Sep-18 11:00N 59°54' E 010°45'0 0.0
2019-Sep-18 10:30N 59°54' E 010°45'0 0.0
2019-Sep-18 10:00N 59°54' E 010°45'0 0.0
2019-Sep-18 09:30N 59°54' E 010°45'0 0.0
2019-Sep-18 09:00N 59°54' E 010°45'0 0.0
2019-Sep-18 08:30N 59°54' E 010°45'0 0.0
2019-Sep-18 08:00N 59°54' E 010°45'2 4.0
2019-Sep-18 07:30N 59°53' E 010°41'816.2
2019-Sep-18 07:00N 59°46' E 010°35'713.6
2019-Sep-18 06:30N 59°39' E 010°37'816.1
2019-Sep-18 06:00N 59°31' E 010°36'816.8
2019-Sep-18 05:30N 59°23' E 010°35'816.5
2019-Sep-18 05:00N 59°15' E 010°37'816.1
2019-Sep-18 04:30N 59°07' E 010°39'816.3
2019-Sep-18 04:00N 58°59' E 010°39'816.8
2019-Sep-18 03:30N 58°50' E 010°39'816.8
2019-Sep-18 03:00N 58°42' E 010°38'917.5
2019-Sep-18 02:30N 58°33' E 010°39'918.0
2019-Sep-18 02:00N 58°25' E 010°42'918.5
2019-Sep-18 01:30N 58°16' E 010°48'918.2
2019-Sep-18 01:00N 58°07' E 010°54'917.6
2019-Sep-18 00:30N 57°59' E 010°60'816.3
2019-Sep-18 00:00N 57°51' E 011°06'816.6
2019-Sep-17 23:30N 57°44' E 011°12'816.7
2019-Sep-17 23:00N 57°36' E 011°18'816.3
2019-Sep-17 22:30N 57°29' E 011°25'816.0
2019-Sep-17 22:00N 57°22' E 011°32'816.1
2019-Sep-17 21:30N 57°14' E 011°36'815.6
2019-Sep-17 21:00N 57°07' E 011°40'815.6
2019-Sep-17 20:30N 56°60' E 011°46'5414.9
2019-Sep-17 16:54N 56°11' E 012°28'513.4
2019-Sep-17 16:30N 56°07' E 012°33'612.9
2019-Sep-17 16:00N 56°02' E 012°40'713.1
2019-Sep-17 15:30N 55°55' E 012°44'713.6
2019-Sep-17 15:00N 55°49' E 012°43'713.5
2019-Sep-17 14:30N 55°43' E 012°38'1 2.2
2019-Sep-17 13:59N 55°42' E 012°36'0 0.0
2019-Sep-17 13:29N 55°42' E 012°36'0 0.0
2019-Sep-17 12:59N 55°42' E 012°36'0 0.0
2019-Sep-17 12:29N 55°42' E 012°36'0 0.0
2019-Sep-17 11:53N 55°42' E 012°36'0 0.0
2019-Sep-17 11:29N 55°42' E 012°36'0 0.0
2019-Sep-17 10:59N 55°42' E 012°36'0 0.0
2019-Sep-17 10:29N 55°42' E 012°36'0 0.0
2019-Sep-17 09:59N 55°42' E 012°36'0 0.0
2019-Sep-17 09:29N 55°42' E 012°36'0 0.0
2019-Sep-17 08:59N 55°42' E 012°36'0 0.0
2019-Sep-17 08:29N 55°42' E 012°36'0 0.0
2019-Sep-17 08:00N 55°42' E 012°36'2 3.1
2019-Sep-17 07:30N 55°43' E 012°38'815.4
2019-Sep-17 07:00N 55°51' E 012°41'816.2
2019-Sep-17 06:30N 55°59' E 012°40'917.5
2019-Sep-17 06:00N 56°06' E 012°33'917.0
2019-Sep-17 05:28N 56°14' E 012°25'6316.8
2019-Sep-17 01:42N 57°15' E 011°52'316.9
2019-Sep-17 01:30N 57°18' E 011°49'816.7
2019-Sep-17 01:00N 57°25' E 011°41'816.2
2019-Sep-17 00:30N 57°32' E 011°33'815.9
2019-Sep-17 00:00N 57°39' E 011°28'815.8
2019-Sep-16 23:30N 57°47' E 011°22'816.4
2019-Sep-16 23:00N 57°54' E 011°16'816.6
2019-Sep-16 22:31N 58°02' E 011°10'816.4
2019-Sep-16 22:01N 58°09' E 011°03'816.3
2019-Sep-16 21:31N 58°17' E 010°57'815.5
2019-Sep-16 21:00N 58°24' E 010°51'815.1
2019-Sep-16 20:30N 58°31' E 010°45'714.9
2019-Sep-16 20:00N 58°38' E 010°40'715.2
2019-Sep-16 19:30N 58°44' E 010°34'714.2
2019-Sep-16 19:00N 58°52' E 010°37'714.8
2019-Sep-16 18:31N 58°59' E 010°39'815.3
2019-Sep-16 18:00N 59°06' E 010°39'816.4
2019-Sep-16 17:31N 59°15' E 010°37'816.1
2019-Sep-16 17:01N 59°22' E 010°34'815.7
2019-Sep-16 16:31N 59°30' E 010°35'714.8
2019-Sep-16 16:01N 59°38' E 010°38'713.5
2019-Sep-16 15:30N 59°44' E 010°33'815.9
2019-Sep-16 14:58N 59°52' E 010°38'4 8.4
2019-Sep-16 14:30N 59°54' E 010°45'0 0.0
2019-Sep-16 14:00N 59°54' E 010°45'0 0.0
2019-Sep-16 13:30N 59°54' E 010°45'0 0.0
2019-Sep-16 13:00N 59°54' E 010°45'0 0.0
2019-Sep-16 12:30N 59°54' E 010°45'0 0.0
2019-Sep-16 12:00N 59°54' E 010°45'0 0.0
2019-Sep-16 11:30N 59°54' E 010°45'0 0.0
2019-Sep-16 11:00N 59°54' E 010°45'0 0.0
2019-Sep-16 10:30N 59°54' E 010°45'0 0.0
2019-Sep-16 10:00N 59°54' E 010°45'0 0.0
2019-Sep-16 09:30N 59°54' E 010°45'0 0.0
2019-Sep-16 09:00N 59°54' E 010°45'4 7.6
2019-Sep-16 08:30N 59°52' E 010°38'713.6
2019-Sep-16 08:00N 59°46' E 010°34'713.3
2019-Sep-16 07:30N 59°39' E 010°37'815.4
2019-Sep-16 07:00N 59°31' E 010°36'816.1
2019-Sep-16 06:30N 59°23' E 010°35'816.8
2019-Sep-16 06:00N 59°15' E 010°37'918.2
2019-Sep-16 05:30N 59°06' E 010°40'918.2
2019-Sep-16 05:00N 58°57' E 010°42'918.0
2019-Sep-16 04:30N 58°48' E 010°43'918.0
2019-Sep-16 04:00N 58°39' E 010°45'918.3
2019-Sep-16 03:30N 58°30' E 010°44'918.3
2019-Sep-16 03:00N 58°21' E 010°44'918.4
2019-Sep-16 02:31N 58°12' E 010°44'918.0
2019-Sep-16 02:00N 58°03' E 010°44'917.9
2019-Sep-16 01:30N 57°54' E 010°44'713.7
2019-Sep-16 01:00N 57°47' E 010°47'714.4
2019-Sep-16 00:31N 57°43' E 010°57'815.4
2019-Sep-16 00:01N 57°37' E 011°08'816.2
2019-Sep-15 23:30N 57°32' E 011°19'816.0
2019-Sep-15 23:01N 57°26' E 011°28'816.3
2019-Sep-15 22:31N 57°18' E 011°34'815.8
2019-Sep-15 22:01N 57°11' E 011°39'715.0
2019-Sep-15 21:31N 57°04' E 011°43'5214.0
2019-Sep-15 17:45N 56°14' E 012°16'713.9
2019-Sep-15 17:14N 56°10' E 012°26'313.7
2019-Sep-15 17:00N 56°08' E 012°31'612.9
2019-Sep-15 16:30N 56°03' E 012°39'611.6
2019-Sep-15 16:00N 55°58' E 012°42'713.8
2019-Sep-15 15:31N 55°51' E 012°45'714.1
2019-Sep-15 15:01N 55°44' E 012°41'4 7.2
2019-Sep-15 14:31N 55°42' E 012°36'0 0.0
2019-Sep-15 13:58N 55°42' E 012°36'0 0.0
2019-Sep-15 13:25N 55°42' E 012°36'0 0.0
2019-Sep-15 12:58N 55°42' E 012°36'0 0.0
2019-Sep-15 12:28N 55°42' E 012°36'0 0.0
2019-Sep-15 11:58N 55°42' E 012°36'0 0.0
2019-Sep-15 11:25N 55°42' E 012°36'0 0.0
2019-Sep-15 10:55N 55°42' E 012°36'0 0.0
2019-Sep-15 10:28N 55°42' E 012°36'0 0.0
2019-Sep-15 09:58N 55°42' E 012°36'0 0.0
2019-Sep-15 09:28N 55°42' E 012°36'0 0.0
2019-Sep-15 08:58N 55°42' E 012°36'0 0.0
2019-Sep-15 08:28N 55°42' E 012°36'0 0.0
2019-Sep-15 07:55N 55°42' E 012°36'1 1.4
2019-Sep-15 07:30N 55°42' E 012°37'713.7
2019-Sep-15 07:01N 55°49' E 012°42'816.2
2019-Sep-15 06:31N 55°57' E 012°40'816.5
2019-Sep-15 06:01N 56°05' E 012°36'917.5
2019-Sep-15 05:30N 56°11' E 012°25'817.0
2019-Sep-15 05:00N 56°18' E 012°16'5415.2
2019-Sep-15 01:25N 57°08' E 011°38'614.8
2019-Sep-15 01:01N 57°14' E 011°34'815.3
2019-Sep-15 00:31N 57°21' E 011°29'815.3
2019-Sep-15 00:01N 57°28' E 011°24'816.3
2019-Sep-14 23:31N 57°36' E 011°21'917.7
2019-Sep-14 23:01N 57°45' E 011°17'917.4
2019-Sep-14 22:30N 57°53' E 011°13'816.3
2019-Sep-14 22:01N 58°01' E 011°08'815.6
2019-Sep-14 21:30N 58°08' E 011°02'815.6
2019-Sep-14 21:00N 58°16' E 010°58'815.9
2019-Sep-14 20:31N 58°23' E 010°52'815.4
2019-Sep-14 20:00N 58°30' E 010°47'714.9
2019-Sep-14 19:30N 58°37' E 010°42'815.6
2019-Sep-14 19:00N 58°44' E 010°35'815.8
2019-Sep-14 18:31N 58°52' E 010°31'815.4
2019-Sep-14 18:01N 58°59' E 010°35'815.8
2019-Sep-14 17:31N 59°07' E 010°38'917.6
2019-Sep-14 17:01N 59°16' E 010°37'918.2
2019-Sep-14 16:31N 59°25' E 010°34'917.7
2019-Sep-14 16:01N 59°33' E 010°37'714.8
2019-Sep-14 15:31N 59°41' E 010°37'814.7
2019-Sep-14 15:00N 59°48' E 010°34'714.6
2019-Sep-14 14:30N 59°54' E 010°43'1 1.6
2019-Sep-14 13:58N 59°54' E 010°45'0 0.0
2019-Sep-14 13:28N 59°54' E 010°45'0 0.0
2019-Sep-14 12:58N 59°54' E 010°45'0 0.0
2019-Sep-14 12:28N 59°54' E 010°45'0 0.0
2019-Sep-14 11:58N 59°54' E 010°45'0 0.0
2019-Sep-14 11:28N 59°54' E 010°45'0 0.0
2019-Sep-14 10:58N 59°54' E 010°45'0 0.0
2019-Sep-14 10:28N 59°54' E 010°45'0 0.0
2019-Sep-14 09:58N 59°54' E 010°45'0 0.0
2019-Sep-14 09:28N 59°54' E 010°45'0 0.0
2019-Sep-14 08:58N 59°54' E 010°45'0 0.0
2019-Sep-14 08:28N 59°54' E 010°45'0 0.0
2019-Sep-14 08:00N 59°54' E 010°45'5 9.3
2019-Sep-14 07:31N 59°51' E 010°37'815.9
2019-Sep-14 07:00N 59°43' E 010°35'714.3
2019-Sep-14 06:30N 59°36' E 010°38'917.7
2019-Sep-14 06:00N 59°28' E 010°34'917.7
2019-Sep-14 05:30N 59°19' E 010°36'917.9
2019-Sep-14 05:00N 59°10' E 010°39'917.9
2019-Sep-14 04:30N 59°01' E 010°41'917.8
2019-Sep-14 04:00N 58°52' E 010°43'917.7
2019-Sep-14 03:30N 58°44' E 010°46'917.9
2019-Sep-14 03:00N 58°35' E 010°48'918.4
2019-Sep-14 02:30N 58°26' E 010°51'918.3
2019-Sep-14 02:00N 58°17' E 010°53'917.6
2019-Sep-14 01:30N 58°08' E 010°53'816.2
2019-Sep-14 01:00N 57°60' E 010°53'816.6
2019-Sep-14 00:30N 57°52' E 010°53'815.4
2019-Sep-14 00:00N 57°44' E 010°57'815.4
2019-Sep-13 23:30N 57°39' E 011°07'815.3
2019-Sep-13 23:00N 57°33' E 011°17'815.4
2019-Sep-13 22:30N 57°28' E 011°27'815.6
2019-Sep-13 22:00N 57°20' E 011°32'815.5
2019-Sep-13 21:30N 57°13' E 011°37'815.7
2019-Sep-13 21:00N 57°05' E 011°42'1015.5
2019-Sep-13 20:23N 56°56' E 011°48'5114.2
2019-Sep-13 16:47N 56°10' E 012°27'414.5
2019-Sep-13 16:30N 56°07' E 012°32'713.6
2019-Sep-13 16:00N 56°02' E 012°40'713.7
2019-Sep-13 15:31N 55°55' E 012°39'714.9
2019-Sep-13 15:01N 55°48' E 012°43'713.3
2019-Sep-13 14:30N 55°43' E 012°37'1 1.7
2019-Sep-13 14:00N 55°42' E 012°36'0 0.0
2019-Sep-13 13:27N 55°42' E 012°36'0 0.0
2019-Sep-13 12:54N 55°42' E 012°36'0 0.0
2019-Sep-13 12:30N 55°42' E 012°36'0 0.0
2019-Sep-13 12:00N 55°42' E 012°36'0 0.0
2019-Sep-13 11:30N 55°42' E 012°36'0 0.0
2019-Sep-13 10:54N 55°42' E 012°36'0 0.0
2019-Sep-13 10:27N 55°42' E 012°36'0 0.0
2019-Sep-13 10:00N 55°42' E 012°36'0 0.0
2019-Sep-13 09:27N 55°42' E 012°36'0 0.0
2019-Sep-13 09:00N 55°42' E 012°36'0 0.0
2019-Sep-13 08:30N 55°42' E 012°36'0 0.0
2019-Sep-13 08:00N 55°42' E 012°36'4 7.4
2019-Sep-13 07:30N 55°45' E 012°40'816.2
2019-Sep-13 07:00N 55°53' E 012°40'918.3
2019-Sep-13 06:30N 56°02' E 012°39'918.7
2019-Sep-13 06:00N 56°10' E 012°29'7518.7
2019-Sep-13 02:00N 57°21' E 011°44'919.0
2019-Sep-13 01:30N 57°28' E 011°34'918.9
2019-Sep-13 01:00N 57°36' E 011°25'918.4
2019-Sep-13 00:30N 57°44' E 011°16'917.2
2019-Sep-13 00:00N 57°53' E 011°11'917.5
2019-Sep-12 23:30N 58°01' E 011°06'816.9
2019-Sep-12 23:00N 58°09' E 011°00'917.0
2019-Sep-12 22:30N 58°17' E 010°54'917.0
2019-Sep-12 22:00N 58°25' E 010°49'816.7
2019-Sep-12 21:30N 58°33' E 010°43'816.9
2019-Sep-12 21:00N 58°40' E 010°35'816.5
2019-Sep-12 20:30N 58°48' E 010°32'816.3
2019-Sep-12 20:00N 58°56' E 010°30'612.1
2019-Sep-12 19:31N 59°02' E 010°34'4 8.9
2019-Sep-12 19:01N 59°06' E 010°37'5 9.1
2019-Sep-12 18:30N 59°10' E 010°38'5 9.8
2019-Sep-12 18:01N 59°15' E 010°36'5 9.5
2019-Sep-12 17:30N 59°20' E 010°35'510.0
2019-Sep-12 17:00N 59°25' E 010°34'611.4
2019-Sep-12 16:30N 59°31' E 010°34'611.7
2019-Sep-12 16:00N 59°36' E 010°38'611.6
2019-Sep-12 15:30N 59°42' E 010°35'714.7
2019-Sep-12 15:00N 59°49' E 010°34'713.3
2019-Sep-12 14:30N 59°54' E 010°43'1 1.3
2019-Sep-12 14:00N 59°54' E 010°45'0 0.0
2019-Sep-12 13:30N 59°54' E 010°45'0 0.0
2019-Sep-12 13:00N 59°54' E 010°45'0 0.0
2019-Sep-12 12:30N 59°54' E 010°45'0 0.0
2019-Sep-12 12:00N 59°54' E 010°45'0 0.0
2019-Sep-12 11:30N 59°54' E 010°45'0 0.0
2019-Sep-12 11:00N 59°54' E 010°45'0 0.0
2019-Sep-12 10:30N 59°54' E 010°45'0 0.0
2019-Sep-12 10:00N 59°54' E 010°45'0 0.0
2019-Sep-12 09:30N 59°54' E 010°45'0 0.0
2019-Sep-12 09:00N 59°54' E 010°45'0 0.0
2019-Sep-12 08:30N 59°54' E 010°45'0 0.0
2019-Sep-12 08:00N 59°54' E 010°45'0 0.6
2019-Sep-12 07:30N 59°54' E 010°44'713.7
2019-Sep-12 07:00N 59°49' E 010°35'814.8
2019-Sep-12 06:30N 59°42' E 010°36'713.6
2019-Sep-12 06:00N 59°35' E 010°38'815.4
2019-Sep-12 05:30N 59°27' E 010°34'816.1
2019-Sep-12 05:00N 59°20' E 010°36'917.3
2019-Sep-12 04:30N 59°11' E 010°39'816.6
2019-Sep-12 04:00N 59°03' E 010°41'816.1
2019-Sep-12 03:30N 58°55' E 010°43'816.4
2019-Sep-12 03:00N 58°47' E 010°45'816.6
2019-Sep-12 02:30N 58°39' E 010°48'816.5
2019-Sep-12 02:00N 58°30' E 010°52'816.5
2019-Sep-12 01:30N 58°22' E 010°54'816.3
2019-Sep-12 01:00N 58°14' E 010°55'816.8
2019-Sep-12 00:30N 58°06' E 010°57'816.7
2019-Sep-12 00:00N 57°57' E 010°58'816.3
2019-Sep-11 23:30N 57°49' E 010°60'815.9
2019-Sep-11 23:00N 57°42' E 011°04'815.8
2019-Sep-11 22:30N 57°36' E 011°14'816.4
2019-Sep-11 22:00N 57°30' E 011°24'815.9
2019-Sep-11 21:30N 57°23' E 011°31'816.5
2019-Sep-11 21:00N 57°15' E 011°36'816.2
2019-Sep-11 20:30N 57°07' E 011°41'816.2
2019-Sep-11 20:00N 56°60' E 011°47'5215.7
2019-Sep-11 16:41N 56°12' E 012°25'316.4
2019-Sep-11 16:30N 56°10' E 012°28'816.5
2019-Sep-11 16:00N 56°04' E 012°38'816.2
2019-Sep-11 15:30N 55°56' E 012°43'816.0
2019-Sep-11 15:00N 55°48' E 012°43'713.7
2019-Sep-11 14:30N 55°42' E 012°36'0 0.8
2019-Sep-11 13:59N 55°42' E 012°36'0 0.0
2019-Sep-11 13:23N 55°42' E 012°36'0 0.0
2019-Sep-11 12:59N 55°42' E 012°36'0 0.0
2019-Sep-11 12:29N 55°42' E 012°36'0 0.0
2019-Sep-11 11:59N 55°42' E 012°36'0 0.0
2019-Sep-11 11:29N 55°42' E 012°36'0 0.0
2019-Sep-11 10:50N 55°42' E 012°36'0 0.0
2019-Sep-11 10:26N 55°42' E 012°36'0 0.0
2019-Sep-11 09:59N 55°42' E 012°36'0 0.0
2019-Sep-11 09:23N 55°42' E 012°36'0 0.0
2019-Sep-11 08:59N 55°42' E 012°36'0 0.0
2019-Sep-11 08:23N 55°42' E 012°36'0 0.0
2019-Sep-11 07:59N 55°42' E 012°36'0 1.0
2019-Sep-11 07:31N 55°42' E 012°36'713.6
2019-Sep-11 07:00N 55°48' E 012°42'815.9
2019-Sep-11 06:30N 55°56' E 012°40'816.0
2019-Sep-11 06:00N 56°04' E 012°37'816.9
2019-Sep-11 05:30N 56°11' E 012°28'3616.0
2019-Sep-11 03:17N 56°45' E 012°09'2016.7
2019-Sep-11 02:04N 57°04' E 011°57'316.5
2019-Sep-11 01:54N 57°07' E 011°56'716.4
2019-Sep-11 01:28N 57°14' E 011°52'816.7
2019-Sep-11 01:00N 57°20' E 011°44'816.7
2019-Sep-11 00:30N 57°27' E 011°37'  

Dump ship's entire track history